sensor_id;sensor_type;location;lat;lon;timestamp;P1;durP1;ratioP1;P2;durP2;ratioP2
52650;SDS011;38537;47.226;39.702;2023-06-10T00:01:01;6.95;;;2.75;;
52650;SDS011;38537;47.226;39.702;2023-06-10T00:03:29;4.43;;;2.60;;
52650;SDS011;38537;47.226;39.702;2023-06-10T00:05:56;10.65;;;2.80;;
52650;SDS011;38537;47.226;39.702;2023-06-10T00:08:23;8.43;;;2.67;;
52650;SDS011;38537;47.226;39.702;2023-06-10T00:10:51;10.55;;;3.10;;
52650;SDS011;38537;47.226;39.702;2023-06-10T00:13:18;8.38;;;3.03;;
52650;SDS011;38537;47.226;39.702;2023-06-10T00:15:45;10.18;;;2.80;;
52650;SDS011;38537;47.226;39.702;2023-06-10T00:18:13;11.68;;;3.17;;
52650;SDS011;38537;47.226;39.702;2023-06-10T00:20:43;7.60;;;3.08;;
52650;SDS011;38537;47.226;39.702;2023-06-10T00:23:10;8.57;;;3.22;;
52650;SDS011;38537;47.226;39.702;2023-06-10T00:25:38;11.48;;;2.97;;
52650;SDS011;38537;47.226;39.702;2023-06-10T00:28:05;5.40;;;2.60;;
52650;SDS011;38537;47.226;39.702;2023-06-10T00:30:33;8.57;;;2.70;;
52650;SDS011;38537;47.226;39.702;2023-06-10T00:33:00;6.28;;;2.80;;
52650;SDS011;38537;47.226;39.702;2023-06-10T00:35:28;5.40;;;2.65;;
52650;SDS011;38537;47.226;39.702;2023-06-10T00:37:55;7.10;;;3.08;;
52650;SDS011;38537;47.226;39.702;2023-06-10T00:40:23;8.95;;;2.85;;
52650;SDS011;38537;47.226;39.702;2023-06-10T00:42:50;5.07;;;2.70;;
52650;SDS011;38537;47.226;39.702;2023-06-10T00:45:20;7.82;;;3.13;;
52650;SDS011;38537;47.226;39.702;2023-06-10T00:47:48;9.23;;;3.00;;
52650;SDS011;38537;47.226;39.702;2023-06-10T00:50:15;9.70;;;2.78;;
52650;SDS011;38537;47.226;39.702;2023-06-10T00:52:44;7.93;;;2.75;;
52650;SDS011;38537;47.226;39.702;2023-06-10T00:55:13;8.45;;;3.25;;
52650;SDS011;38537;47.226;39.702;2023-06-10T00:57:42;12.57;;;3.00;;
52650;SDS011;38537;47.226;39.702;2023-06-10T01:00:11;10.90;;;2.83;;
52650;SDS011;38537;47.226;39.702;2023-06-10T01:02:40;5.78;;;2.70;;
52650;SDS011;38537;47.226;39.702;2023-06-10T01:05:08;4.70;;;2.63;;
52650;SDS011;38537;47.226;39.702;2023-06-10T01:10:20;7.43;;;2.22;;
52650;SDS011;38537;47.226;39.702;2023-06-10T01:12:55;10.32;;;2.63;;
52650;SDS011;38537;47.226;39.702;2023-06-10T01:15:35;8.93;;;3.00;;
52650;SDS011;38537;47.226;39.702;2023-06-10T01:18:03;10.68;;;2.80;;
52650;SDS011;38537;47.226;39.702;2023-06-10T01:20:36;10.25;;;2.50;;
52650;SDS011;38537;47.226;39.702;2023-06-10T01:23:07;11.63;;;2.50;;
52650;SDS011;38537;47.226;39.702;2023-06-10T01:25:39;6.63;;;3.38;;
52650;SDS011;38537;47.226;39.702;2023-06-10T01:28:18;8.98;;;2.67;;
52650;SDS011;38537;47.226;39.702;2023-06-10T01:33:36;7.60;;;2.78;;
52650;SDS011;38537;47.226;39.702;2023-06-10T01:36:06;8.75;;;2.83;;
52650;SDS011;38537;47.226;39.702;2023-06-10T01:38:44;10.18;;;2.97;;
52650;SDS011;38537;47.226;39.702;2023-06-10T01:41:15;7.00;;;2.78;;
52650;SDS011;38537;47.226;39.702;2023-06-10T01:43:44;8.85;;;2.95;;
52650;SDS011;38537;47.226;39.702;2023-06-10T01:46:13;6.03;;;2.35;;
52650;SDS011;38537;47.226;39.702;2023-06-10T01:48:42;9.52;;;2.90;;
52650;SDS011;38537;47.226;39.702;2023-06-10T01:51:09;6.63;;;2.60;;
52650;SDS011;38537;47.226;39.702;2023-06-10T01:53:38;8.07;;;3.00;;
52650;SDS011;38537;47.226;39.702;2023-06-10T01:56:05;9.55;;;2.78;;
52650;SDS011;38537;47.226;39.702;2023-06-10T01:58:32;8.65;;;2.83;;
52650;SDS011;38537;47.226;39.702;2023-06-10T02:01:00;5.60;;;2.42;;
52650;SDS011;38537;47.226;39.702;2023-06-10T02:03:27;6.20;;;2.85;;
52650;SDS011;38537;47.226;39.702;2023-06-10T02:05:55;5.07;;;2.47;;
52650;SDS011;38537;47.226;39.702;2023-06-10T02:08:22;8.55;;;2.60;;
52650;SDS011;38537;47.226;39.702;2023-06-10T02:10:49;8.07;;;2.97;;
52650;SDS011;38537;47.226;39.702;2023-06-10T02:13:17;9.73;;;2.78;;
52650;SDS011;38537;47.226;39.702;2023-06-10T02:15:45;8.07;;;2.60;;
52650;SDS011;38537;47.226;39.702;2023-06-10T02:18:12;8.63;;;2.70;;
52650;SDS011;38537;47.226;39.702;2023-06-10T02:20:42;6.93;;;2.65;;
52650;SDS011;38537;47.226;39.702;2023-06-10T02:23:09;12.73;;;3.30;;
52650;SDS011;38537;47.226;39.702;2023-06-10T02:25:36;7.00;;;2.70;;
52650;SDS011;38537;47.226;39.702;2023-06-10T02:28:04;12.75;;;3.00;;
52650;SDS011;38537;47.226;39.702;2023-06-10T02:30:33;8.60;;;2.92;;
52650;SDS011;38537;47.226;39.702;2023-06-10T02:33:01;10.45;;;3.13;;
52650;SDS011;38537;47.226;39.702;2023-06-10T02:35:29;8.18;;;2.65;;
52650;SDS011;38537;47.226;39.702;2023-06-10T02:37:57;9.85;;;2.78;;
52650;SDS011;38537;47.226;39.702;2023-06-10T02:40:25;10.10;;;3.03;;
52650;SDS011;38537;47.226;39.702;2023-06-10T02:42:53;6.95;;;2.65;;
52650;SDS011;38537;47.226;39.702;2023-06-10T02:45:21;8.10;;;2.65;;
52650;SDS011;38537;47.226;39.702;2023-06-10T02:47:50;8.57;;;2.55;;
52650;SDS011;38537;47.226;39.702;2023-06-10T02:50:21;10.52;;;3.00;;
52650;SDS011;38537;47.226;39.702;2023-06-10T02:52:57;9.43;;;2.70;;
52650;SDS011;38537;47.226;39.702;2023-06-10T02:55:26;6.25;;;2.70;;
52650;SDS011;38537;47.226;39.702;2023-06-10T02:58:02;8.70;;;3.03;;
52650;SDS011;38537;47.226;39.702;2023-06-10T03:00:31;9.30;;;3.15;;
52650;SDS011;38537;47.226;39.702;2023-06-10T03:02:59;6.53;;;2.65;;
52650;SDS011;38537;47.226;39.702;2023-06-10T03:05:35;9.82;;;3.05;;
52650;SDS011;38537;47.226;39.702;2023-06-10T03:08:04;11.05;;;3.15;;
52650;SDS011;38537;47.226;39.702;2023-06-10T03:10:34;7.90;;;3.20;;
52650;SDS011;38537;47.226;39.702;2023-06-10T03:13:04;15.38;;;3.05;;
52650;SDS011;38537;47.226;39.702;2023-06-10T03:15:32;9.27;;;2.70;;
52650;SDS011;38537;47.226;39.702;2023-06-10T03:18:04;8.05;;;2.92;;
52650;SDS011;38537;47.226;39.702;2023-06-10T03:20:33;11.90;;;2.97;;
52650;SDS011;38537;47.226;39.702;2023-06-10T03:23:06;8.40;;;2.90;;
52650;SDS011;38537;47.226;39.702;2023-06-10T03:25:34;11.02;;;2.83;;
52650;SDS011;38537;47.226;39.702;2023-06-10T03:28:03;6.53;;;2.95;;
52650;SDS011;38537;47.226;39.702;2023-06-10T03:30:32;11.35;;;2.70;;
52650;SDS011;38537;47.226;39.702;2023-06-10T03:33:00;7.50;;;2.97;;
52650;SDS011;38537;47.226;39.702;2023-06-10T03:35:29;9.95;;;3.03;;
52650;SDS011;38537;47.226;39.702;2023-06-10T03:38:00;8.02;;;2.55;;
52650;SDS011;38537;47.226;39.702;2023-06-10T03:40:28;8.73;;;3.00;;
52650;SDS011;38537;47.226;39.702;2023-06-10T03:42:58;7.10;;;2.60;;
52650;SDS011;38537;47.226;39.702;2023-06-10T03:45:27;7.60;;;2.63;;
52650;SDS011;38537;47.226;39.702;2023-06-10T03:47:56;9.45;;;2.83;;
52650;SDS011;38537;47.226;39.702;2023-06-10T03:50:31;6.13;;;3.00;;
52650;SDS011;38537;47.226;39.702;2023-06-10T03:52:59;9.48;;;2.72;;
52650;SDS011;38537;47.226;39.702;2023-06-10T03:55:27;5.15;;;2.30;;
52650;SDS011;38537;47.226;39.702;2023-06-10T03:57:57;9.27;;;2.55;;
52650;SDS011;38537;47.226;39.702;2023-06-10T04:00:32;5.03;;;2.67;;
52650;SDS011;38537;47.226;39.702;2023-06-10T04:03:08;7.13;;;2.60;;
52650;SDS011;38537;47.226;39.702;2023-06-10T04:05:41;8.88;;;3.08;;
52650;SDS011;38537;47.226;39.702;2023-06-10T04:08:09;8.48;;;2.70;;
52650;SDS011;38537;47.226;39.702;2023-06-10T04:10:43;7.43;;;2.95;;
52650;SDS011;38537;47.226;39.702;2023-06-10T04:13:12;8.07;;;2.78;;
52650;SDS011;38537;47.226;39.702;2023-06-10T04:15:51;7.07;;;2.60;;
52650;SDS011;38537;47.226;39.702;2023-06-10T04:18:20;6.18;;;2.50;;
52650;SDS011;38537;47.226;39.702;2023-06-10T04:20:54;6.57;;;2.90;;
52650;SDS011;38537;47.226;39.702;2023-06-10T04:23:23;5.15;;;2.60;;
52650;SDS011;38537;47.226;39.702;2023-06-10T04:25:50;5.90;;;2.30;;
52650;SDS011;38537;47.226;39.702;2023-06-10T04:28:25;9.13;;;3.00;;
52650;SDS011;38537;47.226;39.702;2023-06-10T04:30:55;4.38;;;2.33;;
52650;SDS011;38537;47.226;39.702;2023-06-10T04:33:23;5.55;;;2.30;;
52650;SDS011;38537;47.226;39.702;2023-06-10T04:35:52;6.22;;;2.80;;
52650;SDS011;38537;47.226;39.702;2023-06-10T04:38:22;6.65;;;2.70;;
52650;SDS011;38537;47.226;39.702;2023-06-10T04:40:50;9.88;;;2.53;;
52650;SDS011;38537;47.226;39.702;2023-06-10T04:43:20;4.95;;;2.78;;
52650;SDS011;38537;47.226;39.702;2023-06-10T04:45:49;11.18;;;2.72;;
52650;SDS011;38537;47.226;39.702;2023-06-10T04:48:17;6.38;;;2.50;;
52650;SDS011;38537;47.226;39.702;2023-06-10T04:50:46;6.78;;;2.30;;
52650;SDS011;38537;47.226;39.702;2023-06-10T04:53:14;6.50;;;2.50;;
52650;SDS011;38537;47.226;39.702;2023-06-10T04:55:45;9.15;;;2.50;;
52650;SDS011;38537;47.226;39.702;2023-06-10T04:58:14;6.97;;;2.60;;
52650;SDS011;38537;47.226;39.702;2023-06-10T05:00:42;6.93;;;2.40;;
52650;SDS011;38537;47.226;39.702;2023-06-10T05:03:10;4.78;;;2.40;;
52650;SDS011;38537;47.226;39.702;2023-06-10T05:05:38;7.78;;;2.92;;
52650;SDS011;38537;47.226;39.702;2023-06-10T05:08:07;4.50;;;2.78;;
52650;SDS011;38537;47.226;39.702;2023-06-10T05:10:38;6.95;;;3.00;;
52650;SDS011;38537;47.226;39.702;2023-06-10T05:13:06;7.38;;;2.92;;
52650;SDS011;38537;47.226;39.702;2023-06-10T05:15:33;7.10;;;2.97;;
52650;SDS011;38537;47.226;39.702;2023-06-10T05:18:01;8.35;;;2.88;;
52650;SDS011;38537;47.226;39.702;2023-06-10T05:20:31;8.73;;;2.92;;
52650;SDS011;38537;47.226;39.702;2023-06-10T05:22:59;3.58;;;2.38;;
52650;SDS011;38537;47.226;39.702;2023-06-10T05:25:28;8.00;;;2.60;;
52650;SDS011;38537;47.226;39.702;2023-06-10T05:27:58;10.52;;;2.90;;
52650;SDS011;38537;47.226;39.702;2023-06-10T05:30:29;3.53;;;2.80;;
52650;SDS011;38537;47.226;39.702;2023-06-10T05:33:04;7.35;;;3.00;;
52650;SDS011;38537;47.226;39.702;2023-06-10T05:35:32;6.90;;;2.85;;
52650;SDS011;38537;47.226;39.702;2023-06-10T05:38:00;6.88;;;2.70;;
52650;SDS011;38537;47.226;39.702;2023-06-10T05:40:32;9.18;;;3.03;;
52650;SDS011;38537;47.226;39.702;2023-06-10T05:43:00;4.43;;;2.85;;
52650;SDS011;38537;47.226;39.702;2023-06-10T05:45:27;5.70;;;2.85;;
52650;SDS011;38537;47.226;39.702;2023-06-10T05:47:54;10.05;;;3.50;;
52650;SDS011;38537;47.226;39.702;2023-06-10T05:50:24;9.45;;;3.00;;
52650;SDS011;38537;47.226;39.702;2023-06-10T05:52:51;8.15;;;2.80;;
52650;SDS011;38537;47.226;39.702;2023-06-10T05:55:20;6.63;;;2.92;;
52650;SDS011;38537;47.226;39.702;2023-06-10T05:57:56;11.35;;;3.17;;
52650;SDS011;38537;47.226;39.702;2023-06-10T06:00:26;9.57;;;2.90;;
52650;SDS011;38537;47.226;39.702;2023-06-10T06:02:54;7.32;;;2.85;;
52650;SDS011;38537;47.226;39.702;2023-06-10T06:05:24;7.35;;;2.90;;
52650;SDS011;38537;47.226;39.702;2023-06-10T06:07:52;4.25;;;2.75;;
52650;SDS011;38537;47.226;39.702;2023-06-10T06:10:19;8.95;;;2.97;;
52650;SDS011;38537;47.226;39.702;2023-06-10T06:12:47;9.32;;;2.92;;
52650;SDS011;38537;47.226;39.702;2023-06-10T06:15:14;7.25;;;2.95;;
52650;SDS011;38537;47.226;39.702;2023-06-10T06:17:42;8.98;;;3.10;;
52650;SDS011;38537;47.226;39.702;2023-06-10T06:20:09;9.95;;;3.10;;
52650;SDS011;38537;47.226;39.702;2023-06-10T06:22:37;7.18;;;3.03;;
52650;SDS011;38537;47.226;39.702;2023-06-10T06:25:05;8.10;;;3.20;;
52650;SDS011;38537;47.226;39.702;2023-06-10T06:27:33;7.75;;;2.92;;
52650;SDS011;38537;47.226;39.702;2023-06-10T06:30:00;5.68;;;2.60;;
52650;SDS011;38537;47.226;39.702;2023-06-10T06:32:30;6.50;;;2.50;;
52650;SDS011;38537;47.226;39.702;2023-06-10T06:34:58;9.63;;;3.20;;
52650;SDS011;38537;47.226;39.702;2023-06-10T06:37:25;6.05;;;3.03;;
52650;SDS011;38537;47.226;39.702;2023-06-10T06:40:14;7.40;;;2.53;;
52650;SDS011;38537;47.226;39.702;2023-06-10T06:42:42;9.85;;;2.83;;
52650;SDS011;38537;47.226;39.702;2023-06-10T06:45:36;5.50;;;2.67;;
52650;SDS011;38537;47.226;39.702;2023-06-10T06:48:04;5.95;;;2.50;;
52650;SDS011;38537;47.226;39.702;2023-06-10T06:50:33;5.68;;;2.80;;
52650;SDS011;38537;47.226;39.702;2023-06-10T06:53:00;6.25;;;2.35;;
52650;SDS011;38537;47.226;39.702;2023-06-10T06:55:28;6.65;;;2.72;;
52650;SDS011;38537;47.226;39.702;2023-06-10T06:57:55;3.08;;;2.60;;
52650;SDS011;38537;47.226;39.702;2023-06-10T07:00:24;6.07;;;2.55;;
52650;SDS011;38537;47.226;39.702;2023-06-10T07:02:51;7.55;;;2.47;;
52650;SDS011;38537;47.226;39.702;2023-06-10T07:05:20;4.13;;;2.10;;
52650;SDS011;38537;47.226;39.702;2023-06-10T07:07:48;4.30;;;2.58;;
52650;SDS011;38537;47.226;39.702;2023-06-10T07:10:22;5.10;;;2.50;;
52650;SDS011;38537;47.226;39.702;2023-06-10T07:12:54;4.50;;;2.30;;
52650;SDS011;38537;47.226;39.702;2023-06-10T07:15:22;6.10;;;2.72;;
52650;SDS011;38537;47.226;39.702;2023-06-10T07:17:49;4.88;;;2.40;;
52650;SDS011;38537;47.226;39.702;2023-06-10T07:20:19;5.60;;;2.58;;
52650;SDS011;38537;47.226;39.702;2023-06-10T07:22:46;8.52;;;2.70;;
52650;SDS011;38537;47.226;39.702;2023-06-10T07:25:15;4.47;;;2.40;;
52650;SDS011;38537;47.226;39.702;2023-06-10T07:27:42;6.05;;;2.50;;
52650;SDS011;38537;47.226;39.702;2023-06-10T07:30:09;4.10;;;2.33;;
52650;SDS011;38537;47.226;39.702;2023-06-10T07:32:37;8.70;;;2.33;;
52650;SDS011;38537;47.226;39.702;2023-06-10T07:35:07;12.35;;;2.97;;
52650;SDS011;38537;47.226;39.702;2023-06-10T07:37:37;4.88;;;2.60;;
52650;SDS011;38537;47.226;39.702;2023-06-10T07:40:07;4.95;;;2.65;;
52650;SDS011;38537;47.226;39.702;2023-06-10T07:42:35;4.63;;;2.35;;
52650;SDS011;38537;47.226;39.702;2023-06-10T07:45:03;4.68;;;2.60;;
52650;SDS011;38537;47.226;39.702;2023-06-10T07:47:39;3.78;;;2.10;;
52650;SDS011;38537;47.226;39.702;2023-06-10T07:50:08;6.40;;;2.40;;
52650;SDS011;38537;47.226;39.702;2023-06-10T07:52:36;5.32;;;2.50;;
52650;SDS011;38537;47.226;39.702;2023-06-10T07:55:04;5.95;;;2.38;;
52650;SDS011;38537;47.226;39.702;2023-06-10T07:57:31;7.07;;;2.83;;
52650;SDS011;38537;47.226;39.702;2023-06-10T08:00:03;4.53;;;2.58;;
52650;SDS011;38537;47.226;39.702;2023-06-10T08:02:38;4.88;;;2.20;;
52650;SDS011;38537;47.226;39.702;2023-06-10T08:05:06;9.55;;;2.58;;
52650;SDS011;38537;47.226;39.702;2023-06-10T08:07:34;5.15;;;2.33;;
52650;SDS011;38537;47.226;39.702;2023-06-10T08:10:02;5.82;;;2.50;;
52650;SDS011;38537;47.226;39.702;2023-06-10T08:12:32;4.60;;;2.30;;
52650;SDS011;38537;47.226;39.702;2023-06-10T08:15:00;5.57;;;2.58;;
52650;SDS011;38537;47.226;39.702;2023-06-10T08:17:31;5.82;;;2.17;;
52650;SDS011;38537;47.226;39.702;2023-06-10T08:19:59;4.32;;;2.40;;
52650;SDS011;38537;47.226;39.702;2023-06-10T08:22:30;5.18;;;2.50;;
52650;SDS011;38537;47.226;39.702;2023-06-10T08:24:57;5.05;;;2.40;;
52650;SDS011;38537;47.226;39.702;2023-06-10T08:27:24;8.45;;;2.65;;
52650;SDS011;38537;47.226;39.702;2023-06-10T08:29:52;5.65;;;2.15;;
52650;SDS011;38537;47.226;39.702;2023-06-10T08:32:45;5.90;;;2.00;;
52650;SDS011;38537;47.226;39.702;2023-06-10T08:35:13;4.30;;;2.03;;
52650;SDS011;38537;47.226;39.702;2023-06-10T08:37:40;5.57;;;2.47;;
52650;SDS011;38537;47.226;39.702;2023-06-10T08:40:08;5.13;;;2.17;;
52650;SDS011;38537;47.226;39.702;2023-06-10T08:42:39;7.22;;;2.53;;
52650;SDS011;38537;47.226;39.702;2023-06-10T08:45:31;4.88;;;2.10;;
52650;SDS011;38537;47.226;39.702;2023-06-10T08:48:11;4.22;;;2.20;;
52650;SDS011;38537;47.226;39.702;2023-06-10T08:50:42;4.30;;;2.10;;
52650;SDS011;38537;47.226;39.702;2023-06-10T08:53:11;5.70;;;2.10;;
52650;SDS011;38537;47.226;39.702;2023-06-10T08:55:46;4.90;;;2.30;;
52650;SDS011;38537;47.226;39.702;2023-06-10T08:58:20;6.80;;;2.20;;
52650;SDS011;38537;47.226;39.702;2023-06-10T09:00:47;8.73;;;2.58;;
52650;SDS011;38537;47.226;39.702;2023-06-10T09:03:19;5.28;;;2.92;;
52650;SDS011;38537;47.226;39.702;2023-06-10T09:05:48;6.25;;;1.98;;
52650;SDS011;38537;47.226;39.702;2023-06-10T09:08:25;5.65;;;2.40;;
52650;SDS011;38537;47.226;39.702;2023-06-10T09:10:52;7.60;;;2.42;;
52650;SDS011;38537;47.226;39.702;2023-06-10T09:13:23;6.00;;;2.50;;
52650;SDS011;38537;47.226;39.702;2023-06-10T09:15:58;9.38;;;2.40;;
52650;SDS011;38537;47.226;39.702;2023-06-10T09:18:33;2.70;;;2.20;;
52650;SDS011;38537;47.226;39.702;2023-06-10T09:21:01;6.90;;;2.20;;
52650;SDS011;38537;47.226;39.702;2023-06-10T09:23:29;6.78;;;2.50;;
52650;SDS011;38537;47.226;39.702;2023-06-10T09:25:58;3.50;;;1.95;;
52650;SDS011;38537;47.226;39.702;2023-06-10T09:28:29;5.20;;;2.38;;
52650;SDS011;38537;47.226;39.702;2023-06-10T09:31:05;7.18;;;2.00;;
52650;SDS011;38537;47.226;39.702;2023-06-10T09:33:37;4.38;;;2.38;;
52650;SDS011;38537;47.226;39.702;2023-06-10T09:38:35;6.13;;;2.30;;
52650;SDS011;38537;47.226;39.702;2023-06-10T09:41:07;8.18;;;2.47;;
52650;SDS011;38537;47.226;39.702;2023-06-10T09:46:14;6.68;;;2.70;;
52650;SDS011;38537;47.226;39.702;2023-06-10T09:48:46;3.80;;;2.33;;
52650;SDS011;38537;47.226;39.702;2023-06-10T09:51:15;3.45;;;2.40;;
52650;SDS011;38537;47.226;39.702;2023-06-10T09:53:48;8.45;;;2.67;;
52650;SDS011;38537;47.226;39.702;2023-06-10T09:56:20;5.22;;;2.33;;
52650;SDS011;38537;47.226;39.702;2023-06-10T09:58:52;6.60;;;2.58;;
52650;SDS011;38537;47.226;39.702;2023-06-10T10:01:22;5.22;;;1.98;;
52650;SDS011;38537;47.226;39.702;2023-06-10T10:03:52;3.90;;;2.42;;
52650;SDS011;38537;47.226;39.702;2023-06-10T10:06:20;6.47;;;2.55;;
52650;SDS011;38537;47.226;39.702;2023-06-10T10:08:48;5.88;;;2.35;;
52650;SDS011;38537;47.226;39.702;2023-06-10T10:11:19;6.22;;;2.45;;
52650;SDS011;38537;47.226;39.702;2023-06-10T10:13:50;4.72;;;2.47;;
52650;SDS011;38537;47.226;39.702;2023-06-10T10:16:37;5.88;;;2.13;;
52650;SDS011;38537;47.226;39.702;2023-06-10T10:19:13;6.25;;;2.58;;
52650;SDS011;38537;47.226;39.702;2023-06-10T10:21:56;6.93;;;2.78;;
52650;SDS011;38537;47.226;39.702;2023-06-10T10:24:35;5.93;;;2.30;;
52650;SDS011;38537;47.226;39.702;2023-06-10T10:27:07;5.63;;;2.72;;
52650;SDS011;38537;47.226;39.702;2023-06-10T10:29:46;7.30;;;2.50;;
52650;SDS011;38537;47.226;39.702;2023-06-10T10:32:18;4.43;;;2.50;;
52650;SDS011;38537;47.226;39.702;2023-06-10T10:37:45;6.40;;;2.38;;
52650;SDS011;38537;47.226;39.702;2023-06-10T10:40:13;6.03;;;2.40;;
52650;SDS011;38537;47.226;39.702;2023-06-10T10:42:41;6.20;;;2.28;;
52650;SDS011;38537;47.226;39.702;2023-06-10T10:45:09;5.82;;;2.50;;
52650;SDS011;38537;47.226;39.702;2023-06-10T10:47:45;7.38;;;2.22;;
52650;SDS011;38537;47.226;39.702;2023-06-10T10:50:17;8.82;;;2.67;;
52650;SDS011;38537;47.226;39.702;2023-06-10T10:52:52;8.35;;;2.45;;
52650;SDS011;38537;47.226;39.702;2023-06-10T10:55:30;11.20;;;2.10;;
52650;SDS011;38537;47.226;39.702;2023-06-10T11:00:35;5.07;;;2.30;;
52650;SDS011;38537;47.226;39.702;2023-06-10T11:03:21;8.45;;;2.97;;
52650;SDS011;38537;47.226;39.702;2023-06-10T11:05:50;8.77;;;2.13;;
52650;SDS011;38537;47.226;39.702;2023-06-10T11:11:00;5.18;;;2.45;;
52650;SDS011;38537;47.226;39.702;2023-06-10T11:13:27;3.70;;;2.08;;
52650;SDS011;38537;47.226;39.702;2023-06-10T11:15:58;4.45;;;2.00;;
52650;SDS011;38537;47.226;39.702;2023-06-10T11:18:26;5.57;;;2.03;;
52650;SDS011;38537;47.226;39.702;2023-06-10T11:26:14;9.02;;;1.88;;
52650;SDS011;38537;47.226;39.702;2023-06-10T11:29:05;4.72;;;2.00;;
52650;SDS011;38537;47.226;39.702;2023-06-10T11:31:43;5.70;;;2.08;;
52650;SDS011;38537;47.226;39.702;2023-06-10T11:34:13;4.55;;;2.20;;
52650;SDS011;38537;47.226;39.702;2023-06-10T11:36:41;7.30;;;2.33;;
52650;SDS011;38537;47.226;39.702;2023-06-10T11:39:13;8.02;;;2.20;;
52650;SDS011;38537;47.226;39.702;2023-06-10T11:41:40;9.07;;;2.15;;
52650;SDS011;38537;47.226;39.702;2023-06-10T11:44:11;4.90;;;2.20;;
52650;SDS011;38537;47.226;39.702;2023-06-10T11:46:45;8.55;;;2.20;;
52650;SDS011;38537;47.226;39.702;2023-06-10T11:49:14;11.23;;;2.10;;
52650;SDS011;38537;47.226;39.702;2023-06-10T11:51:42;4.35;;;1.95;;
52650;SDS011;38537;47.226;39.702;2023-06-10T11:54:17;3.45;;;1.88;;
52650;SDS011;38537;47.226;39.702;2023-06-10T11:56:45;3.55;;;1.73;;
52650;SDS011;38537;47.226;39.702;2023-06-10T11:59:12;3.92;;;1.98;;
52650;SDS011;38537;47.226;39.702;2023-06-10T12:01:44;4.43;;;2.00;;
52650;SDS011;38537;47.226;39.702;2023-06-10T12:04:14;6.40;;;2.08;;
52650;SDS011;38537;47.226;39.702;2023-06-10T12:09:21;3.75;;;1.98;;
52650;SDS011;38537;47.226;39.702;2023-06-10T12:11:58;2.92;;;1.65;;
52650;SDS011;38537;47.226;39.702;2023-06-10T12:20:06;4.43;;;2.03;;
52650;SDS011;38537;47.226;39.702;2023-06-10T12:22:35;6.97;;;1.88;;
52650;SDS011;38537;47.226;39.702;2023-06-10T12:25:04;3.63;;;2.00;;
52650;SDS011;38537;47.226;39.702;2023-06-10T12:27:34;3.67;;;1.80;;
52650;SDS011;38537;47.226;39.702;2023-06-10T12:30:04;5.20;;;1.75;;
52650;SDS011;38537;47.226;39.702;2023-06-10T12:32:39;3.20;;;1.88;;
52650;SDS011;38537;47.226;39.702;2023-06-10T12:35:09;5.20;;;1.80;;
52650;SDS011;38537;47.226;39.702;2023-06-10T12:37:39;4.70;;;2.05;;
52650;SDS011;38537;47.226;39.702;2023-06-10T12:40:10;4.95;;;1.85;;
52650;SDS011;38537;47.226;39.702;2023-06-10T12:42:38;5.78;;;2.00;;
52650;SDS011;38537;47.226;39.702;2023-06-10T12:45:06;5.55;;;1.83;;
52650;SDS011;38537;47.226;39.702;2023-06-10T12:47:39;3.72;;;1.80;;
52650;SDS011;38537;47.226;39.702;2023-06-10T12:50:08;4.93;;;2.20;;
52650;SDS011;38537;47.226;39.702;2023-06-10T12:52:39;3.90;;;1.80;;
52650;SDS011;38537;47.226;39.702;2023-06-10T12:55:07;6.57;;;2.53;;
52650;SDS011;38537;47.226;39.702;2023-06-10T12:57:36;5.25;;;1.75;;
52650;SDS011;38537;47.226;39.702;2023-06-10T13:00:06;3.45;;;1.80;;
52650;SDS011;38537;47.226;39.702;2023-06-10T13:02:35;3.92;;;1.80;;
52650;SDS011;38537;47.226;39.702;2023-06-10T13:05:03;3.00;;;1.75;;
52650;SDS011;38537;47.226;39.702;2023-06-10T13:07:31;3.58;;;2.00;;
52650;SDS011;38537;47.226;39.702;2023-06-10T13:09:58;3.80;;;1.73;;
52650;SDS011;38537;47.226;39.702;2023-06-10T13:12:26;4.40;;;1.77;;
52650;SDS011;38537;47.226;39.702;2023-06-10T13:15:13;10.93;;;2.05;;
52650;SDS011;38537;47.226;39.702;2023-06-10T13:17:44;4.95;;;1.95;;
52650;SDS011;38537;47.226;39.702;2023-06-10T13:20:18;4.50;;;2.10;;
52650;SDS011;38537;47.226;39.702;2023-06-10T13:22:47;6.40;;;2.00;;
52650;SDS011;38537;47.226;39.702;2023-06-10T13:25:18;3.58;;;1.77;;
52650;SDS011;38537;47.226;39.702;2023-06-10T13:27:45;4.75;;;2.00;;
52650;SDS011;38537;47.226;39.702;2023-06-10T13:30:13;7.32;;;2.05;;
52650;SDS011;38537;47.226;39.702;2023-06-10T13:32:40;7.82;;;2.13;;
52650;SDS011;38537;47.226;39.702;2023-06-10T13:35:08;3.38;;;1.83;;
52650;SDS011;38537;47.226;39.702;2023-06-10T13:37:37;3.83;;;2.00;;
52650;SDS011;38537;47.226;39.702;2023-06-10T13:40:04;5.68;;;2.03;;
52650;SDS011;38537;47.226;39.702;2023-06-10T13:42:35;4.55;;;1.85;;
52650;SDS011;38537;47.226;39.702;2023-06-10T13:45:03;5.43;;;1.90;;
52650;SDS011;38537;47.226;39.702;2023-06-10T13:47:31;4.65;;;1.70;;
52650;SDS011;38537;47.226;39.702;2023-06-10T13:49:59;3.22;;;1.90;;
52650;SDS011;38537;47.226;39.702;2023-06-10T13:52:30;3.70;;;1.70;;
52650;SDS011;38537;47.226;39.702;2023-06-10T13:54:57;2.58;;;1.90;;
52650;SDS011;38537;47.226;39.702;2023-06-10T13:57:24;3.58;;;1.80;;
52650;SDS011;38537;47.226;39.702;2023-06-10T13:59:52;4.53;;;1.77;;
52650;SDS011;38537;47.226;39.702;2023-06-10T14:02:19;2.53;;;1.60;;
52650;SDS011;38537;47.226;39.702;2023-06-10T14:04:48;6.07;;;2.00;;
52650;SDS011;38537;47.226;39.702;2023-06-10T14:07:18;4.40;;;1.90;;
52650;SDS011;38537;47.226;39.702;2023-06-10T14:09:45;3.65;;;2.05;;
52650;SDS011;38537;47.226;39.702;2023-06-10T14:12:12;4.45;;;1.85;;
52650;SDS011;38537;47.226;39.702;2023-06-10T14:14:41;3.75;;;2.03;;
52650;SDS011;38537;47.226;39.702;2023-06-10T14:17:08;5.35;;;2.03;;
52650;SDS011;38537;47.226;39.702;2023-06-10T14:19:36;3.08;;;2.10;;
52650;SDS011;38537;47.226;39.702;2023-06-10T14:22:03;7.80;;;2.28;;
52650;SDS011;38537;47.226;39.702;2023-06-10T14:24:34;7.32;;;2.35;;
52650;SDS011;38537;47.226;39.702;2023-06-10T14:27:05;7.20;;;2.30;;
52650;SDS011;38537;47.226;39.702;2023-06-10T14:29:33;3.47;;;1.92;;
52650;SDS011;38537;47.226;39.702;2023-06-10T14:32:00;4.95;;;2.20;;
52650;SDS011;38537;47.226;39.702;2023-06-10T14:34:28;5.70;;;2.25;;
52650;SDS011;38537;47.226;39.702;2023-06-10T14:37:00;7.47;;;2.20;;
52650;SDS011;38537;47.226;39.702;2023-06-10T14:39:30;2.97;;;2.33;;
52650;SDS011;38537;47.226;39.702;2023-06-10T14:41:57;6.40;;;2.20;;
52650;SDS011;38537;47.226;39.702;2023-06-10T14:44:25;9.82;;;2.50;;
52650;SDS011;38537;47.226;39.702;2023-06-10T14:46:53;3.40;;;1.92;;
52650;SDS011;38537;47.226;39.702;2023-06-10T14:49:23;4.93;;;2.20;;
52650;SDS011;38537;47.226;39.702;2023-06-10T14:51:51;8.32;;;2.17;;
52650;SDS011;38537;47.226;39.702;2023-06-10T14:54:18;3.92;;;1.98;;
52650;SDS011;38537;47.226;39.702;2023-06-10T14:56:45;6.07;;;2.30;;
52650;SDS011;38537;47.226;39.702;2023-06-10T14:59:15;4.38;;;2.05;;
52650;SDS011;38537;47.226;39.702;2023-06-10T15:01:43;4.78;;;2.17;;
52650;SDS011;38537;47.226;39.702;2023-06-10T15:04:10;5.22;;;2.10;;
52650;SDS011;38537;47.226;39.702;2023-06-10T15:06:38;5.35;;;2.30;;
52650;SDS011;38537;47.226;39.702;2023-06-10T15:09:05;4.50;;;2.45;;
52650;SDS011;38537;47.226;39.702;2023-06-10T15:11:33;5.68;;;2.78;;
52650;SDS011;38537;47.226;39.702;2023-06-10T15:14:00;7.45;;;2.50;;
52650;SDS011;38537;47.226;39.702;2023-06-10T15:16:27;5.55;;;2.83;;
52650;SDS011;38537;47.226;39.702;2023-06-10T15:18:55;5.93;;;2.25;;
52650;SDS011;38537;47.226;39.702;2023-06-10T15:21:22;4.93;;;2.50;;